createdAt,value
2023-01-04T00:00:10.389Z,9.20
2023-01-04T00:05:14.172Z,9.20
2023-01-04T00:10:19.519Z,9.20
2023-01-04T00:15:23.343Z,9.20
2023-01-04T00:20:27.071Z,9.20
2023-01-04T00:25:32.172Z,9.10
2023-01-04T00:30:35.993Z,9.20
2023-01-04T00:35:46.747Z,9.20
2023-01-04T00:40:51.944Z,9.20
2023-01-04T00:45:55.799Z,9.20
2023-01-04T00:51:00.037Z,9.30
2023-01-04T00:56:05.685Z,9.20
2023-01-04T01:01:10.199Z,9.30
2023-01-04T01:06:14.043Z,9.40
2023-01-04T01:11:19.666Z,9.30
2023-01-04T01:16:51.655Z,9.30
2023-01-04T01:21:48.711Z,9.40
2023-01-04T01:26:56.412Z,9.40
2023-01-04T01:32:00.255Z,9.40
2023-01-04T01:37:04.198Z,9.40
2023-01-04T01:42:19.642Z,9.40
2023-01-04T01:47:26.448Z,9.50
2023-01-04T01:52:34.500Z,9.50
2023-01-04T01:57:39.893Z,9.50
2023-01-04T02:02:51.014Z,9.60
2023-01-04T02:07:55.332Z,9.60
2023-01-04T02:13:03.673Z,9.70
2023-01-04T02:18:12.388Z,9.70
2023-01-04T02:24:04.245Z,9.80
2023-01-04T02:29:51.220Z,9.80
2023-01-04T02:35:05.333Z,9.70
2023-01-04T02:40:18.326Z,9.90
2023-01-04T02:45:28.045Z,9.80
2023-01-04T02:50:37.114Z,9.80
2023-01-04T02:55:49.288Z,9.90
2023-01-04T03:01:18.017Z,9.90
2023-01-04T03:06:28.048Z,9.90
2023-01-04T03:11:56.968Z,9.90
2023-01-04T03:17:02.591Z,9.90
2023-01-04T03:22:30.267Z,10.00
2023-01-04T03:27:51.607Z,10.10
2023-01-04T03:33:25.416Z,10.20
2023-01-04T03:38:55.427Z,10.20
2023-01-04T03:44:24.802Z,10.30
2023-01-04T03:49:34.801Z,10.30
2023-01-04T03:54:42.942Z,10.40
2023-01-04T03:59:53.314Z,10.40
2023-01-04T04:05:14.704Z,10.40
2023-01-04T04:10:19.769Z,10.60
2023-01-04T04:15:23.495Z,10.50
2023-01-04T04:20:27.192Z,10.60
2023-01-04T04:25:32.231Z,10.70
2023-01-04T04:30:35.885Z,10.60
2023-01-04T04:35:40.538Z,10.70
2023-01-04T04:41:03.052Z,10.80
2023-01-04T04:46:07.897Z,10.80
2023-01-04T04:51:11.767Z,10.80
2023-01-04T04:56:17.514Z,10.90
2023-01-04T05:01:21.396Z,10.80
2023-01-04T05:06:25.585Z,10.80
2023-01-04T05:11:48.160Z,10.90
2023-01-04T05:16:52.062Z,10.90
2023-01-04T05:21:55.895Z,11.00
2023-01-04T05:27:00.969Z,10.90
2023-01-04T05:32:04.772Z,10.90
2023-01-04T05:37:08.518Z,10.90
2023-01-04T05:42:28.972Z,10.90
2023-01-04T05:47:32.681Z,11.00
2023-01-04T05:52:37.287Z,10.90
2023-01-04T05:57:42.519Z,10.90
2023-01-04T06:02:46.475Z,11.10
2023-01-04T06:07:51.085Z,11.00
2023-01-04T06:12:56.402Z,11.00
2023-01-04T06:18:00.110Z,11.10
2023-01-04T06:23:03.837Z,11.10
2023-01-04T06:28:08.972Z,11.10
2023-01-04T06:33:12.699Z,11.20
2023-01-04T06:38:16.393Z,11.20
2023-01-04T06:43:21.667Z,11.30
2023-01-04T06:48:25.326Z,11.20
2023-01-04T06:53:29.172Z,11.30
2023-01-04T06:58:34.262Z,11.20
2023-01-04T07:03:38.095Z,11.30
2023-01-04T07:08:41.813Z,11.30
2023-01-04T07:13:47.000Z,11.30
2023-01-04T07:18:50.709Z,11.40
2023-01-04T07:23:54.424Z,11.40
2023-01-04T07:29:17.916Z,11.50
2023-01-04T07:34:24.299Z,11.50
2023-01-04T07:39:28.097Z,11.60
2023-01-04T07:44:33.173Z,11.60
2023-01-04T07:49:36.903Z,11.60
2023-01-04T07:54:40.609Z,11.70
2023-01-04T07:59:45.738Z,11.60
2023-01-04T08:04:49.511Z,11.60
2023-01-04T08:09:53.238Z,11.70
2023-01-04T08:14:58.340Z,11.70
2023-01-04T08:20:02.612Z,11.80
2023-01-04T08:25:07.164Z,11.80
2023-01-04T08:30:12.768Z,11.80
2023-01-04T08:35:16.684Z,11.80
2023-01-04T08:40:20.618Z,11.90
2023-01-04T08:45:25.750Z,12.00
2023-01-04T08:50:30.303Z,11.90
2023-01-04T08:55:34.465Z,12.00
2023-01-04T09:00:39.871Z,12.00
2023-01-04T09:05:44.857Z,12.00
2023-01-04T09:10:48.655Z,12.00
2023-01-04T09:15:53.863Z,12.00
2023-01-04T09:20:58.024Z,12.00
2023-01-04T09:26:09.519Z,12.00
2023-01-04T09:31:17.066Z,12.00
2023-01-04T09:36:20.767Z,12.00
2023-01-04T09:41:27.925Z,12.00
2023-01-04T09:46:40.392Z,12.00
2023-01-04T09:51:50.816Z,12.00
2023-01-04T09:56:58.347Z,12.00
2023-01-04T10:02:12.278Z,12.00
2023-01-04T10:07:22.613Z,12.00
2023-01-04T10:12:40.603Z,11.90
2023-01-04T10:23:39.169Z,12.00
2023-01-04T10:28:58.675Z,11.90
2023-01-04T10:34:18.744Z,12.00
2023-01-04T10:39:32.073Z,12.00
2023-01-04T10:44:44.280Z,12.00
2023-01-04T10:49:53.739Z,12.00
2023-01-04T10:55:02.087Z,11.90
2023-01-04T11:00:12.584Z,12.00
2023-01-04T11:05:25.003Z,12.00
2023-01-04T11:10:32.703Z,12.00
2023-01-04T11:15:37.488Z,12.00
2023-01-04T11:20:43.182Z,12.10
2023-01-04T11:25:55.775Z,12.10
2023-01-04T11:31:05.497Z,12.10
2023-01-04T11:36:10.897Z,12.10
2023-01-04T11:41:19.181Z,12.00
2023-01-04T11:46:25.216Z,12.10
2023-01-04T11:51:40.996Z,12.10
2023-01-04T11:57:00.786Z,12.20
2023-01-04T12:07:49.949Z,12.20
2023-01-04T12:12:54.552Z,12.10
2023-01-04T12:18:06.495Z,12.30
2023-01-04T12:23:13.356Z,12.20
2023-01-04T12:28:35.072Z,12.20
2023-01-04T12:33:40.606Z,12.30
2023-01-04T12:39:30.054Z,12.30
2023-01-04T12:45:16.887Z,12.30
2023-01-04T12:50:23.307Z,12.40
2023-01-04T12:55:52.381Z,12.40
2023-01-04T13:01:28.488Z,12.50
2023-01-04T13:06:37.021Z,12.40
2023-01-04T13:12:06.153Z,12.50
2023-01-04T13:17:19.172Z,12.40
2023-01-04T13:22:29.405Z,12.40
2023-01-04T13:27:34.187Z,12.40
2023-01-04T13:33:15.088Z,12.50
2023-01-04T13:38:03.450Z,12.50
2023-01-04T13:43:20.523Z,12.60
2023-01-04T13:48:26.440Z,12.60
2023-01-04T13:53:32.042Z,12.50
2023-01-04T13:58:36.642Z,12.60
2023-01-04T14:03:46.212Z,12.60
2023-01-04T14:08:56.872Z,12.70
2023-01-04T14:14:00.811Z,12.70
2023-01-04T14:19:39.794Z,12.80
2023-01-04T14:25:10.989Z,12.80
2023-01-04T14:30:24.178Z,12.70
2023-01-04T14:35:31.833Z,12.80
2023-01-04T14:40:36.740Z,12.80
2023-01-04T14:45:40.717Z,12.80
2023-01-04T14:50:45.975Z,12.80
2023-01-04T14:55:49.728Z,12.80
2023-01-04T15:00:53.649Z,12.90
2023-01-04T15:05:58.941Z,12.80
2023-01-04T15:11:03.243Z,12.80
2023-01-04T15:16:08.057Z,12.80
2023-01-04T15:21:13.960Z,12.80
2023-01-04T15:26:17.723Z,12.80
2023-01-04T15:31:29.050Z,12.80
2023-01-04T15:36:38.773Z,12.80
2023-01-04T15:42:00.599Z,12.70
2023-01-04T15:47:04.548Z,12.70
2023-01-04T15:52:09.728Z,12.70
2023-01-04T15:57:14.311Z,12.70
2023-01-04T16:02:18.136Z,12.60
2023-01-04T16:07:23.357Z,12.60
2023-01-04T16:12:48.708Z,12.60
2023-01-04T16:17:56.697Z,12.50
2023-01-04T16:23:01.819Z,12.50
2023-01-04T16:28:06.583Z,12.40
2023-01-04T16:33:54.873Z,12.40
2023-01-04T16:39:00.214Z,12.40
2023-01-04T16:44:06.664Z,12.50
2023-01-04T16:49:13.503Z,12.40
2023-01-04T16:54:19.975Z,12.50
2023-01-04T16:59:23.781Z,12.50
2023-01-04T17:04:27.600Z,12.40
2023-01-04T17:09:32.944Z,12.40
2023-01-04T17:14:36.710Z,12.40
2023-01-04T17:19:40.519Z,12.40
2023-01-04T17:24:45.834Z,12.40
2023-01-04T17:29:49.765Z,12.40
2023-01-04T17:34:53.566Z,12.40
2023-01-04T17:39:58.931Z,12.40
2023-01-04T17:45:02.829Z,12.40
2023-01-04T17:50:09.737Z,12.30
2023-01-04T17:55:15.148Z,12.40
2023-01-04T18:00:19.467Z,12.40
2023-01-04T18:05:23.257Z,12.40
2023-01-04T18:10:41.388Z,12.40
2023-01-04T18:16:18.155Z,12.40
2023-01-04T18:21:28.484Z,12.40
2023-01-04T18:26:53.554Z,12.50
2023-01-04T18:31:59.082Z,12.50
2023-01-04T18:37:03.032Z,12.50
2023-01-04T18:42:08.373Z,12.40
2023-01-04T18:47:13.433Z,12.40
2023-01-04T18:52:17.557Z,12.50
2023-01-04T18:57:22.993Z,12.50
2023-01-04T19:02:27.993Z,12.40
2023-01-04T19:07:32.047Z,12.50
2023-01-04T19:12:38.896Z,12.40
2023-01-04T19:17:42.863Z,12.40
2023-01-04T19:22:46.585Z,12.40
2023-01-04T19:27:51.753Z,12.40
2023-01-04T19:32:55.671Z,12.40
2023-01-04T19:38:00.109Z,12.40
2023-01-04T19:43:05.350Z,12.40
2023-01-04T19:48:09.114Z,12.40
2023-01-04T19:53:13.983Z,12.40
2023-01-04T19:58:19.132Z,12.40
2023-01-04T20:03:23.675Z,12.30
2023-01-04T20:08:27.458Z,12.30
2023-01-04T20:13:34.234Z,12.30
2023-01-04T20:18:38.789Z,12.30
2023-01-04T20:23:43.717Z,12.30
2023-01-04T20:28:48.945Z,12.30
2023-01-04T20:33:52.796Z,12.30
2023-01-04T20:38:58.211Z,12.30
2023-01-04T20:44:03.869Z,12.30
2023-01-04T20:49:07.566Z,12.30
2023-01-04T20:54:11.535Z,12.30
2023-01-04T20:59:16.773Z,12.20
2023-01-04T21:04:20.428Z,12.20
2023-01-04T21:09:24.160Z,12.20
2023-01-04T21:14:31.440Z,12.20
2023-01-04T21:19:35.737Z,12.20
2023-01-04T21:24:39.731Z,12.20
2023-01-04T21:29:58.259Z,12.20
2023-01-04T21:35:22.510Z,12.20
2023-01-04T21:40:26.255Z,12.10
2023-01-04T21:45:31.512Z,12.10
2023-01-04T21:50:35.878Z,12.00
2023-01-04T21:55:39.638Z,12.00
2023-01-04T22:00:44.702Z,12.00
2023-01-04T22:05:48.968Z,12.00
2023-01-04T22:10:56.091Z,11.90
2023-01-04T22:16:01.025Z,11.90
2023-01-04T22:21:07.148Z,11.80
2023-01-04T22:26:11.274Z,11.80
2023-01-04T22:31:16.690Z,11.70
2023-01-04T22:36:23.429Z,11.70
2023-01-04T22:41:29.098Z,11.70
2023-01-04T22:46:35.789Z,11.60
2023-01-04T22:51:41.445Z,11.50
2023-01-04T22:56:45.200Z,11.50
2023-01-04T23:01:50.358Z,11.50
2023-01-04T23:06:54.638Z,11.50
2023-01-04T23:11:58.412Z,11.40
2023-01-04T23:17:03.704Z,11.50
2023-01-04T23:22:07.595Z,11.50
2023-01-04T23:27:11.363Z,11.50
2023-01-04T23:32:16.559Z,11.50
2023-01-04T23:37:20.658Z,11.50
2023-01-04T23:42:24.579Z,11.50
2023-01-04T23:47:29.711Z,11.50
2023-01-04T23:52:33.377Z,11.50
2023-01-04T23:57:37.207Z,11.50
